createdAt,value
2022-09-04T00:01:47.800Z,15.92
2022-09-04T00:16:48.054Z,16.09
2022-09-04T00:31:48.082Z,15.94
2022-09-04T00:46:49.881Z,15.87
2022-09-04T01:01:50.102Z,15.83
2022-09-04T01:16:50.263Z,15.69
2022-09-04T01:31:50.573Z,15.59
2022-09-04T01:46:51.611Z,15.47
2022-09-04T02:01:53.856Z,15.32
2022-09-04T02:16:53.519Z,15.06
2022-09-04T02:31:53.846Z,14.72
2022-09-04T02:46:54.027Z,14.54
2022-09-04T03:02:01.139Z,14.17
2022-09-04T03:17:01.239Z,13.81
2022-09-04T03:32:13.524Z,13.25
2022-09-04T03:47:07.348Z,12.92
2022-09-04T04:02:08.010Z,12.52
2022-09-04T04:17:08.589Z,11.94
2022-09-04T04:32:12.839Z,11.60
2022-09-04T04:47:14.531Z,11.22
2022-09-04T05:02:14.737Z,11.21
2022-09-04T05:17:16.225Z,11.25
2022-09-04T05:32:18.214Z,12.05
2022-09-04T05:47:18.863Z,13.70
2022-09-04T06:02:20.821Z,15.62
2022-09-04T06:17:21.362Z,16.42
2022-09-04T06:32:21.440Z,16.24
2022-09-04T06:47:23.316Z,17.34
2022-09-04T07:02:25.065Z,18.23
2022-09-04T07:17:25.769Z,19.04
2022-09-04T07:32:27.612Z,19.36
2022-09-04T07:47:28.193Z,20.41
2022-09-04T08:02:30.033Z,21.32
2022-09-04T08:17:31.406Z,21.86
2022-09-04T08:32:36.752Z,22.86
2022-09-04T08:47:38.257Z,23.33
2022-09-04T09:02:41.707Z,23.51
2022-09-04T09:17:42.968Z,24.30
2022-09-04T09:32:44.295Z,24.80
2022-09-04T09:47:46.640Z,25.06
2022-09-04T10:02:48.048Z,25.54
2022-09-04T10:17:49.311Z,25.88
2022-09-04T10:32:50.663Z,26.23
2022-09-04T10:47:51.283Z,26.32
2022-09-04T11:02:51.896Z,26.50
2022-09-04T11:17:51.929Z,27.29
2022-09-04T11:32:54.299Z,26.94
2022-09-04T11:47:55.642Z,27.17
2022-09-04T12:02:56.330Z,27.24
2022-09-04T12:17:58.232Z,27.66
2022-09-04T12:32:59.568Z,27.51
2022-09-04T12:48:01.696Z,27.22
2022-09-04T13:03:03.041Z,27.51
2022-09-04T13:18:04.369Z,27.10
2022-09-04T13:33:05.715Z,27.12
2022-09-04T13:48:07.052Z,27.27
2022-09-04T14:03:08.411Z,27.19
2022-09-04T14:18:09.774Z,26.63
2022-09-04T14:33:18.963Z,26.72
2022-09-04T14:48:16.196Z,27.00
2022-09-04T15:03:17.599Z,26.99
2022-09-04T15:18:18.943Z,27.28
2022-09-04T15:33:20.315Z,26.60
2022-09-04T15:48:21.715Z,25.60
2022-09-04T16:03:23.039Z,24.87
2022-09-04T16:18:23.356Z,24.06
2022-09-04T16:33:27.715Z,23.61
2022-09-04T16:48:34.871Z,22.95
2022-09-04T17:03:35.231Z,22.27
2022-09-04T17:18:41.066Z,21.61
2022-09-04T17:36:36.323Z,20.88
2022-09-04T17:48:47.364Z,20.01
2022-09-04T18:04:08.102Z,19.06
2022-09-04T18:18:53.364Z,18.41
2022-09-04T18:37:21.858Z,17.79
2022-09-04T18:50:45.371Z,17.12
2022-09-04T19:04:18.911Z,16.73
2022-09-04T19:19:17.138Z,16.42
2022-09-04T19:34:17.227Z,16.12
2022-09-04T19:50:01.815Z,15.76
2022-09-04T20:04:27.328Z,15.41
2022-09-04T20:19:29.139Z,14.98
2022-09-04T20:34:29.476Z,14.88
2022-09-04T20:52:49.856Z,14.43
2022-09-04T21:04:43.172Z,14.46
2022-09-04T21:19:42.266Z,14.21
2022-09-04T21:34:44.134Z,14.00
2022-09-04T21:49:44.725Z,13.99
2022-09-04T22:04:45.646Z,13.55
2022-09-04T22:19:46.174Z,13.33
2022-09-04T22:34:46.744Z,13.23
2022-09-04T22:49:47.334Z,13.19
2022-09-04T23:04:49.119Z,12.96
2022-09-04T23:25:31.075Z,12.71
2022-09-04T23:35:14.829Z,12.86
2022-09-04T23:50:00.073Z,12.57
